Mount Holly, Vermont
Current Conditions -  °F | °C
As of 6:16 PM on Tuesday 27 Jan 2015 (Local Time) from KVSF Reporting Station
Light Snow Light Snow  
Wind Chill: -4°   Ceiling: 1400
Heat Index: 11°   Visibility: 1mi
Dew Point:   Wind: 13mph
Humidity: 73%   Direction: 360°N
Pressure: 29.75"   Gusts: 18mph
Location:  43.45°N, 72.83°W
Report Text: KVSF 272316Z AUTO 36011G16KT 1SM -SN VV014 M12/M16 A2975 RMK AO2 P0001 T11171156 TSNO
Loading
Personal Weather Stations






























Interactive Weather Map New forecast layout! Learn more

10-Day Weather Forecast

Advertisements
Track Severe Weather on mobile